EWG9K EDDH-EDDL
Flight info
| Callsign | EWG9K |
|---|---|
| Flight time | N/A |
| Altitude | 27000 |
| Route | IDEKO8C/05 IDEKO N850 ROBEG/N0387F260 DCT DENOL T851 HALME HALME1A |
| Aircraft | A320/M-SDE3FGHIRWY/LB1 |
Departure
| Time | 2026-04-20 17:19 |
|---|---|
| Airport | Hamburg Helmut Schmidt Airport (EDDH) |
Arrival
| Time | N/A |
|---|---|
| Airport | Düsseldorf Airport (EDDL) |
| Time | Latitude | Longitude | Altitude | Speed | Heading |
|---|---|---|---|---|---|
| 2026-04-20 17:19 | 53.70671 | 9.78933 | 13685 ft | 353 kts | 247° |
| 2026-04-20 17:19 | 53.69685 | 9.75061 | 14405 ft | 360 kts | 246° |
| 2026-04-20 17:19 | 53.68678 | 9.71175 | 15099 ft | 363 kts | 246° |
| 2026-04-20 17:19 | 53.67650 | 9.67260 | 15738 ft | 366 kts | 244° |
| 2026-04-20 17:20 | 53.66314 | 9.63618 | 16380 ft | 368 kts | 230° |
| 2026-04-20 17:20 | 53.64507 | 9.60571 | 17030 ft | 368 kts | 216° |
| 2026-04-20 17:20 | 53.62347 | 9.58281 | 17352 ft | 379 kts | 202° |
| 2026-04-20 17:20 | 53.59808 | 9.56878 | 17504 ft | 391 kts | 188° |
| 2026-04-20 17:21 | 53.57063 | 9.56302 | 17646 ft | 405 kts | 184° |
| 2026-04-20 17:21 | 53.51178 | 9.55188 | 17925 ft | 433 kts | 184° |
| 2026-04-20 17:21 | 53.48152 | 9.54592 | 18110 ft | 443 kts | 185° |
| 2026-04-20 17:22 | 53.45075 | 9.53975 | 18443 ft | 447 kts | 185° |
| 2026-04-20 17:22 | 53.41978 | 9.53354 | 18788 ft | 450 kts | 185° |
| 2026-04-20 17:22 | 53.38864 | 9.52734 | 19155 ft | 452 kts | 185° |
| 2026-04-20 17:22 | 53.35733 | 9.52118 | 19482 ft | 454 kts | 185° |
| 2026-04-20 17:23 | 53.32581 | 9.51505 | 19782 ft | 457 kts | 185° |
| 2026-04-20 17:23 | 53.29414 | 9.50891 | 20085 ft | 460 kts | 185° |
| 2026-04-20 17:23 | 53.26230 | 9.50269 | 20183 ft | 460 kts | 185° |
| 2026-04-20 17:23 | 53.23053 | 9.49648 | 20192 ft | 460 kts | 185° |
| 2026-04-20 17:24 | 53.19876 | 9.49029 | 20189 ft | 460 kts | 185° |
| 2026-04-20 17:24 | 53.16690 | 9.48406 | 20184 ft | 460 kts | 185° |
| 2026-04-20 17:24 | 53.13514 | 9.47781 | 20183 ft | 460 kts | 185° |
| 2026-04-20 17:24 | 53.10336 | 9.47153 | 20183 ft | 460 kts | 185° |
| 2026-04-20 17:25 | 53.07155 | 9.46528 | 20179 ft | 460 kts | 185° |
| 2026-04-20 17:25 | 53.03972 | 9.45912 | 20172 ft | 461 kts | 185° |
| 2026-04-20 17:25 | 53.00792 | 9.45303 | 20181 ft | 460 kts | 185° |
| 2026-04-20 17:25 | 52.97614 | 9.44689 | 20175 ft | 460 kts | 185° |
| 2026-04-20 17:26 | 52.94437 | 9.44038 | 20173 ft | 460 kts | 186° |
| 2026-04-20 17:26 | 52.91260 | 9.43359 | 20168 ft | 460 kts | 186° |
| 2026-04-20 17:26 | 52.88086 | 9.42669 | 20167 ft | 460 kts | 186° |
| 2026-04-20 17:26 | 52.84910 | 9.41976 | 20162 ft | 459 kts | 186° |
| 2026-04-20 17:27 | 52.81745 | 9.41288 | 20164 ft | 459 kts | 186° |
| 2026-04-20 17:27 | 52.78581 | 9.40605 | 20163 ft | 459 kts | 186° |
| 2026-04-20 17:27 | 52.75412 | 9.39927 | 20169 ft | 459 kts | 186° |
| 2026-04-20 17:27 | 52.72250 | 9.39255 | 20160 ft | 459 kts | 186° |
| 2026-04-20 17:28 | 52.69086 | 9.38584 | 20163 ft | 459 kts | 186° |
| 2026-04-20 17:28 | 52.65920 | 9.37914 | 20159 ft | 459 kts | 186° |
| 2026-04-20 17:28 | 52.63821 | 9.37469 | 20160 ft | 459 kts | 186° |
| 2026-04-20 17:28 | 52.59635 | 9.36538 | 20166 ft | 458 kts | 187° |
| 2026-04-20 17:29 | 52.57501 | 9.36007 | 20160 ft | 458 kts | 188° |
| 2026-04-20 17:29 | 52.53345 | 9.34893 | 20162 ft | 458 kts | 188° |
| 2026-04-20 17:29 | 52.50206 | 9.34020 | 20167 ft | 458 kts | 188° |
| 2026-04-20 17:29 | 52.47064 | 9.33151 | 20175 ft | 458 kts | 188° |
| 2026-04-20 17:30 | 52.44944 | 9.32577 | 20172 ft | 457 kts | 188° |
| 2026-04-20 17:30 | 52.41807 | 9.31751 | 20179 ft | 458 kts | 188° |
| 2026-04-20 17:30 | 52.37638 | 9.30678 | 20185 ft | 457 kts | 188° |
| 2026-04-20 17:30 | 52.35522 | 9.30134 | 20184 ft | 456 kts | 188° |
| 2026-04-20 17:31 | 52.32390 | 9.29323 | 20194 ft | 455 kts | 188° |
| 2026-04-20 17:31 | 52.29260 | 9.28507 | 20198 ft | 455 kts | 188° |
| 2026-04-20 17:31 | 52.26201 | 9.27184 | 20190 ft | 457 kts | 201° |
| 2026-04-20 17:31 | 52.23419 | 9.24713 | 20197 ft | 458 kts | 216° |
| 2026-04-20 17:32 | 52.21073 | 9.21214 | 20193 ft | 458 kts | 230° |
| 2026-04-20 17:32 | 52.19202 | 9.16988 | 20188 ft | 458 kts | 236° |
| 2026-04-20 17:32 | 52.17414 | 9.12693 | 20200 ft | 459 kts | 236° |
| 2026-04-20 17:32 | 52.15625 | 9.08389 | 20202 ft | 459 kts | 236° |
| 2026-04-20 17:33 | 52.13840 | 9.04093 | 20185 ft | 459 kts | 236° |
| 2026-04-20 17:33 | 52.12046 | 8.99789 | 20190 ft | 459 kts | 236° |
| 2026-04-20 17:33 | 52.10250 | 8.95497 | 20194 ft | 459 kts | 235° |
| 2026-04-20 17:33 | 52.08447 | 8.91214 | 20183 ft | 459 kts | 235° |
| 2026-04-20 17:34 | 52.06643 | 8.86937 | 20195 ft | 459 kts | 235° |
| 2026-04-20 17:34 | 52.04838 | 8.82653 | 20194 ft | 459 kts | 234° |
| 2026-04-20 17:34 | 52.03035 | 8.78380 | 20198 ft | 459 kts | 234° |
| 2026-04-20 17:34 | 52.01232 | 8.74113 | 20190 ft | 459 kts | 234° |
| 2026-04-20 17:35 | 51.99458 | 8.69789 | 20189 ft | 460 kts | 239° |
| 2026-04-20 17:35 | 51.98144 | 8.65063 | 20191 ft | 460 kts | 252° |
| 2026-04-20 17:35 | 51.97396 | 8.60020 | 20201 ft | 461 kts | 258° |
| 2026-04-20 17:35 | 51.96761 | 8.54996 | 20197 ft | 461 kts | 258° |
| 2026-04-20 17:36 | 51.96116 | 8.49911 | 20196 ft | 462 kts | 258° |
| 2026-04-20 17:36 | 51.95465 | 8.44809 | 20201 ft | 462 kts | 258° |
| 2026-04-20 17:36 | 51.94813 | 8.39720 | 20195 ft | 461 kts | 258° |
| 2026-04-20 17:36 | 51.94156 | 8.34628 | 20206 ft | 461 kts | 258° |
| 2026-04-20 17:37 | 51.93495 | 8.29537 | 20193 ft | 462 kts | 257° |
| 2026-04-20 17:37 | 51.92830 | 8.24439 | 20198 ft | 463 kts | 257° |
| 2026-04-20 17:37 | 51.92163 | 8.19335 | 20192 ft | 463 kts | 257° |
| 2026-04-20 17:37 | 51.91495 | 8.14239 | 20202 ft | 463 kts | 257° |
| 2026-04-20 17:38 | 51.90819 | 8.09134 | 20198 ft | 463 kts | 257° |
| 2026-04-20 17:38 | 51.90138 | 8.04036 | 20205 ft | 463 kts | 257° |
| 2026-04-20 17:38 | 51.89455 | 7.98930 | 20195 ft | 463 kts | 257° |
| 2026-04-20 17:38 | 51.88773 | 7.93830 | 20195 ft | 463 kts | 257° |
| 2026-04-20 17:39 | 51.88096 | 7.88747 | 20205 ft | 464 kts | 257° |
| 2026-04-20 17:39 | 51.87415 | 7.83637 | 20201 ft | 464 kts | 257° |
| 2026-04-20 17:39 | 51.86734 | 7.78534 | 20202 ft | 464 kts | 256° |
| 2026-04-20 17:39 | 51.86046 | 7.73446 | 20209 ft | 464 kts | 255° |
| 2026-04-20 17:40 | 51.85018 | 7.68524 | 20197 ft | 461 kts | 244° |
| 2026-04-20 17:40 | 51.83636 | 7.63857 | 20193 ft | 461 kts | 242° |
| 2026-04-20 17:40 | 51.82246 | 7.59199 | 19982 ft | 457 kts | 242° |
| 2026-04-20 17:40 | 51.80903 | 7.54687 | 19611 ft | 437 kts | 243° |
| 2026-04-20 17:41 | 51.79603 | 7.50301 | 18999 ft | 429 kts | 243° |
| 2026-04-20 17:41 | 51.78319 | 7.45980 | 18353 ft | 425 kts | 243° |
| 2026-04-20 17:41 | 51.77045 | 7.41705 | 17693 ft | 416 kts | 243° |
| 2026-04-20 17:41 | 51.75833 | 7.37636 | 17548 ft | 387 kts | 243° |
| 2026-04-20 17:42 | 51.74694 | 7.33819 | 17067 ft | 370 kts | 243° |
| 2026-04-20 17:42 | 51.73584 | 7.30118 | 16240 ft | 364 kts | 243° |
| 2026-04-20 17:42 | 51.72473 | 7.26440 | 15272 ft | 365 kts | 243° |
| 2026-04-20 17:42 | 51.71364 | 7.22773 | 13282 ft | 373 kts | 243° |
| 2026-04-20 17:43 | 51.70246 | 7.18935 | 11442 ft | 388 kts | 250° |
| 2026-04-20 17:43 | 51.69761 | 7.14692 | 10293 ft | 382 kts | 271° |
| 2026-04-20 17:43 | 51.70121 | 7.10599 | 9648 ft | 357 kts | 289° |
| 2026-04-20 17:43 | 51.71119 | 7.07128 | 9337 ft | 327 kts | 306° |
| 2026-04-20 17:44 | 51.72534 | 7.04491 | 9160 ft | 298 kts | 321° |
| 2026-04-20 17:44 | 51.74151 | 7.02712 | 9021 ft | 276 kts | 335° |
| 2026-04-20 17:44 | 51.75906 | 7.01609 | 8734 ft | 269 kts | 349° |
| 2026-04-20 17:44 | 51.77788 | 7.01268 | 8869 ft | 270 kts | 2° |
| 2026-04-20 17:45 | 51.79621 | 7.01615 | 8918 ft | 268 kts | 14° |
| 2026-04-20 17:45 | 51.81370 | 7.02617 | 8927 ft | 267 kts | 26° |
| 2026-04-20 17:45 | 51.82936 | 7.04236 | 8933 ft | 269 kts | 39° |
| 2026-04-20 17:45 | 51.84237 | 7.06395 | 8930 ft | 268 kts | 53° |
| 2026-04-20 17:46 | 51.85235 | 7.08932 | 8926 ft | 268 kts | 62° |
| 2026-04-20 17:46 | 51.85960 | 7.11702 | 8930 ft | 269 kts | 74° |
| 2026-04-20 17:46 | 51.86258 | 7.14680 | 8926 ft | 269 kts | 86° |
| 2026-04-20 17:46 | 51.86153 | 7.17691 | 8928 ft | 270 kts | 98° |
| 2026-04-20 17:47 | 51.85636 | 7.20614 | 8928 ft | 272 kts | 111° |
| 2026-04-20 17:47 | 51.84712 | 7.23294 | 8924 ft | 274 kts | 124° |
| 2026-04-20 17:47 | 51.83414 | 7.25560 | 8925 ft | 277 kts | 137° |
| 2026-04-20 17:47 | 51.81803 | 7.27285 | 8923 ft | 280 kts | 152° |
| 2026-04-20 17:48 | 51.79932 | 7.28236 | 8821 ft | 287 kts | 173° |
| 2026-04-20 17:48 | 51.77936 | 7.27941 | 8689 ft | 291 kts | 198° |
| 2026-04-20 17:48 | 51.76087 | 7.26617 | 8559 ft | 291 kts | 206° |
| 2026-04-20 17:48 | 51.74271 | 7.25190 | 8422 ft | 290 kts | 206° |
| 2026-04-20 17:49 | 51.72464 | 7.23754 | 8304 ft | 290 kts | 207° |
| 2026-04-20 17:49 | 51.70654 | 7.22314 | 8164 ft | 291 kts | 207° |
| 2026-04-20 17:49 | 51.68835 | 7.20868 | 8035 ft | 290 kts | 207° |
| 2026-04-20 17:49 | 51.67032 | 7.19439 | 7864 ft | 290 kts | 207° |